Historyczne dane pomiarowe

Dodano dane terminowe – wersja testowa.

Dane z okresu 1951-2019

Wersja bazy: 1.34 [2019-03-16, lista zmian], aktualizacja planowana na 2019-04-15

Dane meteo z obszaru Polski uzyskane na podstawie danych udostępnionych przez Instytut Meteorologii i Gospodarki Wodnej – Państwowy Instytut Badawczy.

 

Wybierz Datę:    

       

TemperaturaWilgotnośćWiatrCiśnienieOpadyŚniegCzas trwania zjawisk
 Stacja t tx tn tng RH VA  wxwx mslp ppp RRR   cm mm wxwxwxwxwxwxwx
1983-08-14 12.0 17.5 8.1 5.4 87.0- 5.3 2.7---- 0.1------------
1983-08-13 15.4 21.9 12.2 12.0 80.0- 6.0 7.7---- 6.5------------
1983-08-12 19.2 25.6 11.9 9.4 72.0- 0.0 1.7---- 8.4------------
1983-08-11 19.8 26.5 14.2 11.7 73.5- 3.3 1.0---- 0.0------------
1983-08-10 19.6 25.6 11.9 10.8 72.8- 0.3 1.3---- 0.0------------
1983-08-09 18.4 25.8 13.9 11.5 85.3- 5.7 2.7---- 0.9------------
1983-08-08 16.4 21.9 12.6 10.6 95.8- 8.0 2.3---- 23.6------------
1983-08-07 15.0 19.8 12.2 9.2 96.8- 8.0 1.7---- 6.4------------
1983-08-06 15.1 19.1 9.0 6.1 77.3- 5.3 3.3---- 2.0------------
1983-08-05 12.8 16.9 7.5 4.8 80.8- 4.7 4.0---- 0.0------------
1983-08-04 10.8 14.2 10.1 10.0 97.0- 8.0 4.3---- 1.0------------
1983-08-03 17.1 21.5 13.9 13.8 94.0- 8.0 4.7---- 0.6------------
1983-08-02 20.1 25.7 17.4 13.8 76.3- 7.3 2.7---- 5.5------------
1983-08-01 23.4 32.6 12.0 8.7 48.0- 0.0 5.0---- 0.0------------
1983-07-31 18.4 26.6 8.2 5.1 57.5- 0.0 0.7---- 0.0------------
1983-07-30 18.6 24.0 15.9 15.7 70.3- 2.0 6.3---- 0.0------------
1983-07-29 19.2 25.7 13.9 10.7 66.3- 6.0 4.0---- 4.0------------
1983-07-28 23.8 28.2 20.4 17.5 54.3- 0.0 3.7---- 0.0------------
1983-07-27 24.4 34.4 12.1 8.5 50.0- 0.0 2.0---- 0.0------------
1983-07-26 21.0 29.3 9.9 6.5 57.0- 0.0 2.3---- 0.0------------
1983-07-25 16.3 23.3 8.5 7.2 70.8- 5.3 2.0---- 0.0------------
1983-07-24 16.5 21.7 9.4 8.0 78.3- 4.7 3.0---- 0.2------------
1983-07-23 18.0 23.6 13.1 12.0 69.0- 2.0 4.3---- 0.0------------
1983-07-22 12.7 15.3 10.3 8.0 81.8- 8.0 3.0---- 0.9------------
1983-07-21 13.1 17.3 8.9 8.5 63.5- 1.3 5.0---- 0.0------------
1983-07-20 15.2 24.2 11.6 11.4 84.0- 8.0 3.0---- 5.0------------
1983-07-19 23.1 28.6 18.4 14.0 57.0- 3.0 3.7---- 4.6------------
1983-07-18 24.2 33.6 14.1 10.2 53.0- 0.0 3.0---- 0.0------------
1983-07-17 20.5 26.8 14.4 11.2 71.5- 3.7 2.3---- 0.0------------
1983-07-16 19.7 29.4 11.9 8.5 74.5- 2.0 3.0---- 0.9------------
1983-07-15 19.0 25.5 11.4 8.2 70.3- 1.3 3.0---- 0.0------------
1983-07-14 19.0 22.6 16.9 15.0 83.8- 5.3 4.3---- 0.2------------
1983-07-13 20.1 26.2 16.6 15.3 74.3- 0.7 4.3---- 4.6------------
1983-07-12 19.6 25.9 16.2 15.0 79.5- 6.7 2.7---- 3.7------------
1983-07-11 21.5 28.3 17.1 17.0 67.8- 8.0 3.7---- 6.8------------
1983-07-10 23.2 29.5 12.4 9.5 57.0- 0.0 2.0---- 0.0------------
1983-07-09 22.3 28.8 10.9 7.2 51.3- 0.3 2.0---- 0.0------------
1983-07-08 21.7 27.5 12.9 7.5 42.5- 0.0 2.0---- 0.0------------
1983-07-07 23.3 29.9 14.7 10.5 53.3- 0.0 2.3---- 0.0------------
1983-07-06 22.9 29.4 13.1 8.2 53.3- 0.0 3.0---- 0.0------------
1983-07-05 20.8 26.5 13.8 10.5 59.5- 0.0 1.7---- 0.0------------
1983-07-04 21.0 27.4 10.9 7.5 61.0- 0.0 1.0---- 0.0------------
1983-07-03 18.8 24.8 10.4 7.0 65.3- 0.3 1.0---- 0.0------------
1983-07-02 18.2 22.8 14.5 14.5 75.5- 3.0 3.7---- 0.0------------
1983-07-01 19.4 26.8 11.1 7.8 64.5- 2.7 4.3---- 1.4------------
1983-06-30 16.4 23.3 8.6 6.0 64.0- 0.0 3.0---- 0.0------------
1983-06-29 13.2 19.5 7.0 4.6 73.0- 0.0 2.3---- 0.0------------
1983-06-28 15.6 20.3 13.4 12.7 77.5- 5.3 3.0---- 0.0------------
1983-06-27 19.8 25.8 15.4 12.5 78.8- 4.7 4.3---- 8.2------------
1983-06-26 19.5 25.6 14.9 13.5 77.5- 0.0 1.7---- 0.0------------
1983-06-25 20.1 29.3 12.4 7.6 68.3- 2.7 3.7---- 0.0------------
1983-06-24 18.1 26.6 7.0 3.3 59.0- 0.0 3.7---- 0.0------------
1983-06-23 14.4 21.3 4.3 0.6 60.0- 0.0 3.0---- 0.0------------
1983-06-22 15.8 21.9 10.9 9.2 60.8- 0.0 3.7---- 0.0------------
1983-06-21 18.9 24.9 9.5 6.2 62.0- 1.7 3.0---- 0.0------------
1983-06-20 17.8 21.9 14.3 13.1 83.8- 4.7 3.0---- 1.2------------
1983-06-19 14.0 17.1 11.9 11.4 92.8- 8.0 3.7---- 1.0------------
1983-06-18 11.9 13.9 9.4 8.6 87.8- 8.0 3.7---- 0.0------------
1983-06-17 11.5 14.5 7.9 6.7 76.0- 6.7 3.7---- 1.6------------
1983-06-16 11.8 14.8 9.1 8.7 80.5- 8.0 3.0---- 0.0------------
403.7 ms

 

Źródłem pochodzenia danych jest Instytut Meteorologii i Gospodarki Wodnej – Państwowy Instytut Badawczy. Dane Instytutu Meteorologii i Gospodarki Wodnej – Państwowego Instytutu Badawczego zostały przetworzone.

Dane źródłowe można odnaleźć na stronie https://dane.imgw.pl